sensor_id;sensor_type;location;lat;lon;timestamp;pressure;altitude;pressure_sealevel;temperature;humidity
9521;BME280;4798;41.574;23.734;2023-03-29T00:00:37;95526.81;;;5.19;44.80
9521;BME280;4798;41.574;23.734;2023-03-29T00:03:05;95526.09;;;4.42;40.32
9521;BME280;4798;41.574;23.734;2023-03-29T00:05:34;95538.69;;;5.21;50.21
9521;BME280;4798;41.574;23.734;2023-03-29T00:08:07;95527.81;;;5.18;37.83
9521;BME280;4798;41.574;23.734;2023-03-29T00:10:40;95531.25;;;5.69;40.00
9521;BME280;4798;41.574;23.734;2023-03-29T00:13:08;95516.94;;;5.77;39.30
9521;BME280;4798;41.574;23.734;2023-03-29T00:15:40;95545.88;;;5.77;41.12
9521;BME280;4798;41.574;23.734;2023-03-29T00:18:08;95476.00;;;5.81;54.97
9521;BME280;4798;41.574;23.734;2023-03-29T00:20:36;95541.09;;;6.30;42.54
9521;BME280;4798;41.574;23.734;2023-03-29T00:23:05;95536.72;;;5.79;43.30
9521;BME280;4798;41.574;23.734;2023-03-29T00:25:33;95543.72;;;4.88;39.17
9521;BME280;4798;41.574;23.734;2023-03-29T00:28:01;95547.44;;;4.69;43.28
9521;BME280;4798;41.574;23.734;2023-03-29T00:30:30;95555.59;;;5.02;44.05
9521;BME280;4798;41.574;23.734;2023-03-29T00:32:59;95554.78;;;5.01;47.20
9521;BME280;4798;41.574;23.734;2023-03-29T00:35:28;95545.19;;;4.95;40.21
9521;BME280;4798;41.574;23.734;2023-03-29T00:37:56;95547.31;;;5.45;40.34
9521;BME280;4798;41.574;23.734;2023-03-29T00:40:24;95517.78;;;5.66;44.18
9521;BME280;4798;41.574;23.734;2023-03-29T00:42:53;95553.25;;;5.52;40.62
9521;BME280;4798;41.574;23.734;2023-03-29T00:45:25;95564.31;;;4.61;43.83
9521;BME280;4798;41.574;23.734;2023-03-29T00:47:57;95557.25;;;4.50;40.07
9521;BME280;4798;41.574;23.734;2023-03-29T00:50:32;95562.16;;;4.58;40.25
9521;BME280;4798;41.574;23.734;2023-03-29T00:53:04;95558.72;;;4.46;41.84
9521;BME280;4798;41.574;23.734;2023-03-29T00:55:36;95572.19;;;4.61;44.44
9521;BME280;4798;41.574;23.734;2023-03-29T00:58:07;95580.41;;;4.53;42.01
9521;BME280;4798;41.574;23.734;2023-03-29T01:00:43;95564.59;;;5.18;43.27
9521;BME280;4798;41.574;23.734;2023-03-29T01:03:15;95575.53;;;5.61;47.15
9521;BME280;4798;41.574;23.734;2023-03-29T01:05:56;95579.53;;;5.52;42.91
9521;BME280;4798;41.574;23.734;2023-03-29T01:08:29;95543.13;;;5.09;48.86
9521;BME280;4798;41.574;23.734;2023-03-29T01:11:02;95584.41;;;4.56;45.32
9521;BME280;4798;41.574;23.734;2023-03-29T01:13:34;95550.31;;;4.79;48.14
9521;BME280;4798;41.574;23.734;2023-03-29T01:16:06;95588.75;;;4.62;42.18
9521;BME280;4798;41.574;23.734;2023-03-29T01:18:36;95588.81;;;5.08;45.38
9521;BME280;4798;41.574;23.734;2023-03-29T01:21:20;95586.88;;;5.38;49.34
9521;BME280;4798;41.574;23.734;2023-03-29T01:26:54;95598.84;;;5.34;56.12
9521;BME280;4798;41.574;23.734;2023-03-29T01:29:27;95602.97;;;5.07;42.30
9521;BME280;4798;41.574;23.734;2023-03-29T01:32:00;95600.47;;;5.00;44.05
9521;BME280;4798;41.574;23.734;2023-03-29T01:34:35;95563.09;;;4.98;46.39
9521;BME280;4798;41.574;23.734;2023-03-29T01:37:10;95587.34;;;5.00;42.01
9521;BME280;4798;41.574;23.734;2023-03-29T01:39:41;95602.63;;;5.27;48.65
9521;BME280;4798;41.574;23.734;2023-03-29T01:42:17;95601.81;;;5.61;47.23
9521;BME280;4798;41.574;23.734;2023-03-29T01:44:53;95578.72;;;5.86;55.19
9521;BME280;4798;41.574;23.734;2023-03-29T01:47:28;95599.19;;;5.61;43.31
9521;BME280;4798;41.574;23.734;2023-03-29T01:50:05;95596.66;;;5.66;41.43
9521;BME280;4798;41.574;23.734;2023-03-29T01:52:41;95601.28;;;5.36;44.27
9521;BME280;4798;41.574;23.734;2023-03-29T01:55:12;95604.09;;;5.57;45.29
9521;BME280;4798;41.574;23.734;2023-03-29T01:57:43;95596.75;;;5.94;51.27
9521;BME280;4798;41.574;23.734;2023-03-29T02:00:17;95598.53;;;5.07;43.56
9521;BME280;4798;41.574;23.734;2023-03-29T02:02:47;95575.19;;;4.76;41.67
9521;BME280;4798;41.574;23.734;2023-03-29T02:05:19;95554.34;;;3.99;44.39
9521;BME280;4798;41.574;23.734;2023-03-29T02:07:50;95615.34;;;4.24;42.61
9521;BME280;4798;41.574;23.734;2023-03-29T02:10:20;95598.69;;;4.71;43.45
9521;BME280;4798;41.574;23.734;2023-03-29T02:12:49;95615.84;;;4.74;59.26
9521;BME280;4798;41.574;23.734;2023-03-29T02:15:19;95610.56;;;4.03;42.64
9521;BME280;4798;41.574;23.734;2023-03-29T02:17:49;95613.31;;;4.67;48.79
9521;BME280;4798;41.574;23.734;2023-03-29T02:20:19;95600.50;;;4.59;46.33
9521;BME280;4798;41.574;23.734;2023-03-29T02:22:55;95614.13;;;4.79;44.09
9521;BME280;4798;41.574;23.734;2023-03-29T02:25:25;95594.97;;;4.90;43.25
9521;BME280;4798;41.574;23.734;2023-03-29T02:27:54;95620.13;;;5.09;43.60
9521;BME280;4798;41.574;23.734;2023-03-29T02:30:27;95567.19;;;4.71;45.47
9521;BME280;4798;41.574;23.734;2023-03-29T02:33:04;95611.13;;;5.29;46.75
9521;BME280;4798;41.574;23.734;2023-03-29T02:35:39;95492.56;;;4.67;60.33
9521;BME280;4798;41.574;23.734;2023-03-29T02:38:11;95633.47;;;5.54;45.00
9521;BME280;4798;41.574;23.734;2023-03-29T02:40:41;95632.19;;;5.80;45.46
9521;BME280;4798;41.574;23.734;2023-03-29T02:43:10;95640.22;;;5.85;44.85
9521;BME280;4798;41.574;23.734;2023-03-29T02:45:42;95638.75;;;5.89;43.90
9521;BME280;4798;41.574;23.734;2023-03-29T02:48:14;95645.03;;;5.76;42.41
9521;BME280;4798;41.574;23.734;2023-03-29T02:50:47;95659.22;;;5.41;44.52
9521;BME280;4798;41.574;23.734;2023-03-29T02:53:19;95653.59;;;5.72;44.32
9521;BME280;4798;41.574;23.734;2023-03-29T02:55:50;95649.97;;;5.38;42.21
9521;BME280;4798;41.574;23.734;2023-03-29T02:58:18;95658.75;;;5.55;42.38
9521;BME280;4798;41.574;23.734;2023-03-29T03:00:57;95647.06;;;5.74;49.29
9521;BME280;4798;41.574;23.734;2023-03-29T03:03:28;95664.69;;;5.28;43.13
9521;BME280;4798;41.574;23.734;2023-03-29T03:05:58;95627.44;;;5.19;44.04
9521;BME280;4798;41.574;23.734;2023-03-29T03:08:27;95672.78;;;5.72;49.51
9521;BME280;4798;41.574;23.734;2023-03-29T03:10:56;95676.78;;;5.75;51.36
9521;BME280;4798;41.574;23.734;2023-03-29T03:13:25;95675.09;;;5.69;47.70
9521;BME280;4798;41.574;23.734;2023-03-29T03:15:53;95674.88;;;5.70;51.27
9521;BME280;4798;41.574;23.734;2023-03-29T03:18:40;95678.88;;;5.73;49.98
9521;BME280;4798;41.574;23.734;2023-03-29T03:21:11;95682.47;;;4.61;44.23
9521;BME280;4798;41.574;23.734;2023-03-29T03:23:40;95648.38;;;4.43;45.37
9521;BME280;4798;41.574;23.734;2023-03-29T03:26:08;95685.91;;;5.03;52.38
9521;BME280;4798;41.574;23.734;2023-03-29T03:28:36;95705.50;;;4.89;46.73
9521;BME280;4798;41.574;23.734;2023-03-29T03:31:05;95671.97;;;4.61;49.61
9521;BME280;4798;41.574;23.734;2023-03-29T03:33:34;95693.41;;;4.99;50.21
9521;BME280;4798;41.574;23.734;2023-03-29T03:36:04;95694.81;;;5.13;46.69
9521;BME280;4798;41.574;23.734;2023-03-29T03:38:33;95700.84;;;4.43;51.08
9521;BME280;4798;41.574;23.734;2023-03-29T03:41:01;95709.06;;;4.65;47.83
9521;BME280;4798;41.574;23.734;2023-03-29T03:43:31;95701.22;;;4.76;51.19
9521;BME280;4798;41.574;23.734;2023-03-29T03:46:00;95700.41;;;4.64;47.27
9521;BME280;4798;41.574;23.734;2023-03-29T03:48:28;95701.63;;;4.62;51.52
9521;BME280;4798;41.574;23.734;2023-03-29T03:50:57;95659.97;;;4.35;54.65
9521;BME280;4798;41.574;23.734;2023-03-29T03:53:28;95711.91;;;4.93;47.11
9521;BME280;4798;41.574;23.734;2023-03-29T03:55:56;95711.63;;;5.12;45.14
9521;BME280;4798;41.574;23.734;2023-03-29T03:58:24;95719.94;;;4.98;44.76
9521;BME280;4798;41.574;23.734;2023-03-29T04:00:53;95688.34;;;4.86;46.42
9521;BME280;4798;41.574;23.734;2023-03-29T04:03:21;95714.56;;;5.04;44.91
9521;BME280;4798;41.574;23.734;2023-03-29T04:05:50;95711.88;;;5.34;49.95
9521;BME280;4798;41.574;23.734;2023-03-29T04:08:18;95720.13;;;5.26;47.99
9521;BME280;4798;41.574;23.734;2023-03-29T04:10:52;95687.38;;;4.99;47.35
9521;BME280;4798;41.574;23.734;2023-03-29T04:13:21;95721.88;;;5.02;44.61
9521;BME280;4798;41.574;23.734;2023-03-29T04:15:49;95709.50;;;4.62;44.16
9521;BME280;4798;41.574;23.734;2023-03-29T04:18:20;95709.69;;;4.48;43.30
9521;BME280;4798;41.574;23.734;2023-03-29T04:20:50;95740.63;;;4.76;43.77
9521;BME280;4798;41.574;23.734;2023-03-29T04:23:18;95741.09;;;5.14;49.99
9521;BME280;4798;41.574;23.734;2023-03-29T04:25:46;95736.88;;;5.25;43.07
9521;BME280;4798;41.574;23.734;2023-03-29T04:28:16;95734.75;;;5.34;45.09
9521;BME280;4798;41.574;23.734;2023-03-29T04:30:45;95734.50;;;5.24;46.62
9521;BME280;4798;41.574;23.734;2023-03-29T04:33:14;95742.25;;;5.19;44.30
9521;BME280;4798;41.574;23.734;2023-03-29T04:35:42;95727.19;;;4.55;43.20
9521;BME280;4798;41.574;23.734;2023-03-29T04:38:10;95731.06;;;4.52;42.70
9521;BME280;4798;41.574;23.734;2023-03-29T04:40:39;95695.56;;;4.31;43.74
9521;BME280;4798;41.574;23.734;2023-03-29T04:43:08;95754.88;;;3.96;42.63
9521;BME280;4798;41.574;23.734;2023-03-29T04:45:38;95764.00;;;3.94;43.69
9521;BME280;4798;41.574;23.734;2023-03-29T04:48:06;95766.41;;;3.70;44.74
9521;BME280;4798;41.574;23.734;2023-03-29T04:50:34;95759.59;;;3.88;45.19
9521;BME280;4798;41.574;23.734;2023-03-29T04:53:03;95760.16;;;3.22;44.36
9521;BME280;4798;41.574;23.734;2023-03-29T04:55:31;95764.31;;;3.05;45.01
9521;BME280;4798;41.574;23.734;2023-03-29T04:58:00;95766.44;;;3.46;44.61
9521;BME280;4798;41.574;23.734;2023-03-29T05:00:28;95765.25;;;3.42;44.25
9521;BME280;4798;41.574;23.734;2023-03-29T05:02:59;95769.19;;;3.75;44.10
9521;BME280;4798;41.574;23.734;2023-03-29T05:05:27;95763.59;;;3.90;43.98
9521;BME280;4798;41.574;23.734;2023-03-29T05:07:56;95763.59;;;3.90;43.10
9521;BME280;4798;41.574;23.734;2023-03-29T05:10:24;95766.41;;;4.13;42.95
9521;BME280;4798;41.574;23.734;2023-03-29T05:12:53;95684.66;;;3.37;40.74
9521;BME280;4798;41.574;23.734;2023-03-29T05:15:22;95759.97;;;3.91;40.80
9521;BME280;4798;41.574;23.734;2023-03-29T05:17:50;95760.09;;;3.78;40.50
9521;BME280;4798;41.574;23.734;2023-03-29T05:20:20;95770.66;;;4.14;40.17
9521;BME280;4798;41.574;23.734;2023-03-29T05:22:50;95741.41;;;4.29;38.98
9521;BME280;4798;41.574;23.734;2023-03-29T05:25:19;95754.31;;;4.30;39.39
9521;BME280;4798;41.574;23.734;2023-03-29T05:27:47;95753.97;;;4.27;39.60
9521;BME280;4798;41.574;23.734;2023-03-29T05:30:16;95745.91;;;4.58;39.59
9521;BME280;4798;41.574;23.734;2023-03-29T05:32:45;95761.59;;;4.46;41.21
9521;BME280;4798;41.574;23.734;2023-03-29T05:35:14;95773.63;;;4.36;41.60
9521;BME280;4798;41.574;23.734;2023-03-29T05:37:43;95783.91;;;4.19;42.58
9521;BME280;4798;41.574;23.734;2023-03-29T05:40:13;95775.16;;;4.43;40.68
9521;BME280;4798;41.574;23.734;2023-03-29T05:42:41;95775.00;;;4.57;41.94
9521;BME280;4798;41.574;23.734;2023-03-29T05:45:10;95728.28;;;4.47;40.44
9521;BME280;4798;41.574;23.734;2023-03-29T05:47:38;95776.91;;;4.68;40.81
9521;BME280;4798;41.574;23.734;2023-03-29T05:50:08;95772.91;;;4.29;42.61
9521;BME280;4798;41.574;23.734;2023-03-29T05:52:37;95709.59;;;4.07;42.50
9521;BME280;4798;41.574;23.734;2023-03-29T05:55:09;95767.84;;;4.93;42.15
9521;BME280;4798;41.574;23.734;2023-03-29T05:57:37;95768.84;;;5.63;42.04
9521;BME280;4798;41.574;23.734;2023-03-29T06:00:06;95770.56;;;5.81;39.53
9521;BME280;4798;41.574;23.734;2023-03-29T06:02:45;95773.09;;;5.76;38.89
9521;BME280;4798;41.574;23.734;2023-03-29T06:05:14;95766.88;;;6.40;38.80
9521;BME280;4798;41.574;23.734;2023-03-29T06:07:42;95774.31;;;5.62;37.88
9521;BME280;4798;41.574;23.734;2023-03-29T06:10:12;95779.19;;;6.11;38.30
9521;BME280;4798;41.574;23.734;2023-03-29T06:12:41;95779.47;;;5.80;37.08
9521;BME280;4798;41.574;23.734;2023-03-29T06:15:10;95776.22;;;6.19;36.91
9521;BME280;4798;41.574;23.734;2023-03-29T06:17:39;95770.31;;;6.52;36.86
9521;BME280;4798;41.574;23.734;2023-03-29T06:20:08;95773.84;;;7.59;34.42
9521;BME280;4798;41.574;23.734;2023-03-29T06:22:36;95686.47;;;7.72;34.22
9521;BME280;4798;41.574;23.734;2023-03-29T06:25:06;95776.59;;;8.52;33.33
9521;BME280;4798;41.574;23.734;2023-03-29T06:27:38;95723.75;;;7.76;33.75
9521;BME280;4798;41.574;23.734;2023-03-29T06:30:07;95769.53;;;8.58;29.70
9521;BME280;4798;41.574;23.734;2023-03-29T06:32:35;95767.75;;;8.25;30.57
9521;BME280;4798;41.574;23.734;2023-03-29T06:35:04;95782.00;;;8.07;32.76
9521;BME280;4798;41.574;23.734;2023-03-29T06:37:33;95788.47;;;8.50;32.79
9521;BME280;4798;41.574;23.734;2023-03-29T06:40:01;95790.00;;;9.37;30.90
9521;BME280;4798;41.574;23.734;2023-03-29T06:42:33;95781.66;;;9.50;31.20
9521;BME280;4798;41.574;23.734;2023-03-29T06:45:03;95794.16;;;9.07;29.45
9521;BME280;4798;41.574;23.734;2023-03-29T06:47:32;95809.44;;;9.26;31.79
9521;BME280;4798;41.574;23.734;2023-03-29T06:50:00;95798.88;;;9.53;30.17
9521;BME280;4798;41.574;23.734;2023-03-29T06:52:29;95811.41;;;10.26;32.08
9521;BME280;4798;41.574;23.734;2023-03-29T06:54:57;95811.78;;;10.40;31.57
9521;BME280;4798;41.574;23.734;2023-03-29T06:57:27;95806.06;;;10.63;33.90
9521;BME280;4798;41.574;23.734;2023-03-29T06:59:56;95801.56;;;10.63;28.81
9521;BME280;4798;41.574;23.734;2023-03-29T07:02:26;95821.84;;;10.06;29.00
9521;BME280;4798;41.574;23.734;2023-03-29T07:04:55;95802.47;;;9.42;29.86
9521;BME280;4798;41.574;23.734;2023-03-29T07:07:23;95795.19;;;10.17;33.70
9521;BME280;4798;41.574;23.734;2023-03-29T07:09:59;95808.59;;;10.43;30.09
9521;BME280;4798;41.574;23.734;2023-03-29T07:12:27;95786.22;;;10.70;28.06
9521;BME280;4798;41.574;23.734;2023-03-29T07:14:55;95786.91;;;10.09;29.36
9521;BME280;4798;41.574;23.734;2023-03-29T07:17:25;95804.06;;;10.01;29.70
9521;BME280;4798;41.574;23.734;2023-03-29T07:19:54;95807.75;;;10.00;30.17
9521;BME280;4798;41.574;23.734;2023-03-29T07:22:22;95803.81;;;9.18;29.93
9521;BME280;4798;41.574;23.734;2023-03-29T07:24:50;95791.59;;;10.34;30.56
9521;BME280;4798;41.574;23.734;2023-03-29T07:27:19;95800.84;;;10.78;30.33
9521;BME280;4798;41.574;23.734;2023-03-29T07:29:48;95813.28;;;10.26;28.56
9521;BME280;4798;41.574;23.734;2023-03-29T07:32:17;95802.50;;;10.05;28.89
9521;BME280;4798;41.574;23.734;2023-03-29T07:34:47;95799.84;;;10.37;28.19
9521;BME280;4798;41.574;23.734;2023-03-29T07:37:15;95787.75;;;9.51;30.00
9521;BME280;4798;41.574;23.734;2023-03-29T07:39:43;95788.38;;;10.27;31.09
9521;BME280;4798;41.574;23.734;2023-03-29T07:42:12;95729.88;;;10.38;29.60
9521;BME280;4798;41.574;23.734;2023-03-29T07:44:40;95779.81;;;11.38;27.46
9521;BME280;4798;41.574;23.734;2023-03-29T07:47:08;95775.59;;;12.48;27.32
9521;BME280;4798;41.574;23.734;2023-03-29T07:49:36;95777.44;;;12.53;29.74
9521;BME280;4798;41.574;23.734;2023-03-29T07:52:06;95779.09;;;12.39;28.26
9521;BME280;4798;41.574;23.734;2023-03-29T07:54:34;95776.44;;;12.29;27.90
9521;BME280;4798;41.574;23.734;2023-03-29T07:57:03;95779.09;;;11.63;28.35
9521;BME280;4798;41.574;23.734;2023-03-29T07:59:31;95784.25;;;10.46;27.50
9521;BME280;4798;41.574;23.734;2023-03-29T08:01:59;95775.22;;;10.99;26.91
9521;BME280;4798;41.574;23.734;2023-03-29T08:04:28;95770.34;;;11.98;27.32
9521;BME280;4798;41.574;23.734;2023-03-29T08:06:57;95741.59;;;11.24;27.27
9521;BME280;4798;41.574;23.734;2023-03-29T08:09:26;95767.06;;;12.61;27.34
9521;BME280;4798;41.574;23.734;2023-03-29T08:11:55;95752.53;;;12.19;26.78
9521;BME280;4798;41.574;23.734;2023-03-29T08:14:23;95767.69;;;12.08;26.46
9521;BME280;4798;41.574;23.734;2023-03-29T08:16:52;95756.47;;;12.41;26.30
9521;BME280;4798;41.574;23.734;2023-03-29T08:19:20;95699.56;;;12.42;27.20
9521;BME280;4798;41.574;23.734;2023-03-29T08:21:48;95754.09;;;12.30;26.08
9521;BME280;4798;41.574;23.734;2023-03-29T08:24:17;95753.63;;;13.84;25.52
9521;BME280;4798;41.574;23.734;2023-03-29T08:26:48;95740.97;;;15.05;29.66
9521;BME280;4798;41.574;23.734;2023-03-29T08:29:16;95706.91;;;13.97;24.82
9521;BME280;4798;41.574;23.734;2023-03-29T08:31:44;95750.44;;;13.00;26.47
9521;BME280;4798;41.574;23.734;2023-03-29T08:34:13;95707.69;;;12.81;25.40
9521;BME280;4798;41.574;23.734;2023-03-29T08:36:41;95706.47;;;12.53;26.78
9521;BME280;4798;41.574;23.734;2023-03-29T08:39:10;95747.03;;;14.11;24.93
9521;BME280;4798;41.574;23.734;2023-03-29T08:41:47;95729.75;;;15.64;24.77
9521;BME280;4798;41.574;23.734;2023-03-29T08:44:30;95750.13;;;14.75;25.60
9521;BME280;4798;41.574;23.734;2023-03-29T08:47:07;95737.31;;;14.53;22.92
9521;BME280;4798;41.574;23.734;2023-03-29T08:49:43;95732.97;;;15.23;23.90
9521;BME280;4798;41.574;23.734;2023-03-29T08:52:21;95743.00;;;15.32;23.15
9521;BME280;4798;41.574;23.734;2023-03-29T08:54:52;95729.59;;;16.06;23.11
9521;BME280;4798;41.574;23.734;2023-03-29T08:57:24;95737.34;;;15.57;22.63
9521;BME280;4798;41.574;23.734;2023-03-29T08:59:58;95724.31;;;16.33;28.86
9521;BME280;4798;41.574;23.734;2023-03-29T09:02:31;95729.34;;;15.33;24.81
9521;BME280;4798;41.574;23.734;2023-03-29T09:05:06;95733.00;;;15.61;22.97
9521;BME280;4798;41.574;23.734;2023-03-29T09:07:36;95706.84;;;15.20;24.87
9521;BME280;4798;41.574;23.734;2023-03-29T09:10:04;95738.59;;;15.22;23.87
9521;BME280;4798;41.574;23.734;2023-03-29T09:12:41;95724.22;;;15.93;22.87
9521;BME280;4798;41.574;23.734;2023-03-29T09:15:15;95726.81;;;15.79;22.54
9521;BME280;4798;41.574;23.734;2023-03-29T09:17:52;95716.34;;;16.15;22.58
9521;BME280;4798;41.574;23.734;2023-03-29T09:20:31;95719.44;;;15.57;22.52
9521;BME280;4798;41.574;23.734;2023-03-29T09:23:19;95660.66;;;16.03;21.99
9521;BME280;4798;41.574;23.734;2023-03-29T09:25:57;95713.53;;;17.06;28.73
9521;BME280;4798;41.574;23.734;2023-03-29T09:28:34;95700.88;;;17.34;23.15
9521;BME280;4798;41.574;23.734;2023-03-29T09:31:11;95708.38;;;17.59;21.81
9521;BME280;4798;41.574;23.734;2023-03-29T09:33:43;95705.53;;;16.66;21.16
9521;BME280;4798;41.574;23.734;2023-03-29T09:36:16;95720.22;;;16.22;23.71
9521;BME280;4798;41.574;23.734;2023-03-29T09:38:46;95714.63;;;15.36;23.01
9521;BME280;4798;41.574;23.734;2023-03-29T09:41:23;95705.50;;;16.38;23.78
9521;BME280;4798;41.574;23.734;2023-03-29T09:43:57;95676.53;;;16.13;22.52
9521;BME280;4798;41.574;23.734;2023-03-29T09:46:36;95655.38;;;17.56;24.63
9521;BME280;4798;41.574;23.734;2023-03-29T09:49:10;95700.16;;;17.42;19.47
9521;BME280;4798;41.574;23.734;2023-03-29T09:51:43;95709.56;;;18.20;23.43
9521;BME280;4798;41.574;23.734;2023-03-29T09:54:13;95695.56;;;18.62;20.97
9521;BME280;4798;41.574;23.734;2023-03-29T09:56:42;95701.06;;;17.96;22.49
9521;BME280;4798;41.574;23.734;2023-03-29T09:59:11;95686.63;;;18.75;20.82
9521;BME280;4798;41.574;23.734;2023-03-29T10:01:42;95668.00;;;18.87;18.07
9521;BME280;4798;41.574;23.734;2023-03-29T10:04:12;95677.88;;;19.26;19.33
9521;BME280;4798;41.574;23.734;2023-03-29T10:06:42;95680.09;;;17.98;19.45
9521;BME280;4798;41.574;23.734;2023-03-29T10:09:14;95656.94;;;18.72;19.02
9521;BME280;4798;41.574;23.734;2023-03-29T10:11:47;95671.13;;;19.80;20.22
9521;BME280;4798;41.574;23.734;2023-03-29T10:14:18;95671.84;;;19.21;19.25
9521;BME280;4798;41.574;23.734;2023-03-29T10:16:55;95663.66;;;19.26;18.75
9521;BME280;4798;41.574;23.734;2023-03-29T10:19:26;95662.56;;;19.78;18.90
9521;BME280;4798;41.574;23.734;2023-03-29T10:21:58;95659.66;;;20.64;20.05
9521;BME280;4798;41.574;23.734;2023-03-29T10:24:27;95661.53;;;20.25;18.45
9521;BME280;4798;41.574;23.734;2023-03-29T10:26:57;95655.19;;;20.30;16.94
9521;BME280;4798;41.574;23.734;2023-03-29T10:29:34;95647.19;;;20.51;17.65
9521;BME280;4798;41.574;23.734;2023-03-29T10:32:14;95655.16;;;19.58;19.72
9521;BME280;4798;41.574;23.734;2023-03-29T10:34:45;95655.47;;;20.37;18.68
9521;BME280;4798;41.574;23.734;2023-03-29T10:37:15;95647.31;;;20.08;19.05
9521;BME280;4798;41.574;23.734;2023-03-29T10:39:46;95648.84;;;19.37;17.88
9521;BME280;4798;41.574;23.734;2023-03-29T10:42:17;95648.81;;;19.54;16.38
9521;BME280;4798;41.574;23.734;2023-03-29T10:44:52;95617.19;;;19.68;16.12
9521;BME280;4798;41.574;23.734;2023-03-29T10:47:22;95632.50;;;19.16;17.22
9521;BME280;4798;41.574;23.734;2023-03-29T10:49:53;95640.94;;;20.30;18.45
9521;BME280;4798;41.574;23.734;2023-03-29T10:52:23;95638.88;;;20.26;18.75
9521;BME280;4798;41.574;23.734;2023-03-29T10:54:53;95644.06;;;19.68;21.70
9521;BME280;4798;41.574;23.734;2023-03-29T10:57:31;95634.44;;;20.22;18.45
9521;BME280;4798;41.574;23.734;2023-03-29T11:00:06;95572.44;;;18.69;19.58
9521;BME280;4798;41.574;23.734;2023-03-29T11:03:06;95615.47;;;19.46;24.12
9521;BME280;4798;41.574;23.734;2023-03-29T11:05:47;95634.25;;;19.72;28.92
9521;BME280;4798;41.574;23.734;2023-03-29T11:08:33;95627.63;;;19.27;17.93
9521;BME280;4798;41.574;23.734;2023-03-29T11:11:13;95621.25;;;18.88;17.38
9521;BME280;4798;41.574;23.734;2023-03-29T11:13:49;95625.50;;;18.81;16.95
9521;BME280;4798;41.574;23.734;2023-03-29T11:16:30;95613.78;;;19.97;19.61
9521;BME280;4798;41.574;23.734;2023-03-29T11:19:20;95616.50;;;19.88;17.56
9521;BME280;4798;41.574;23.734;2023-03-29T11:21:57;95621.31;;;19.40;19.09
9521;BME280;4798;41.574;23.734;2023-03-29T11:27:31;95609.03;;;19.94;18.33
9521;BME280;4798;41.574;23.734;2023-03-29T11:30:12;95613.91;;;20.55;20.01
9521;BME280;4798;41.574;23.734;2023-03-29T11:32:53;95609.66;;;21.04;20.20
9521;BME280;4798;41.574;23.734;2023-03-29T11:35:40;95596.03;;;20.51;20.72
9521;BME280;4798;41.574;23.734;2023-03-29T11:38:18;95597.09;;;20.20;17.20
9521;BME280;4798;41.574;23.734;2023-03-29T11:40:55;95587.56;;;19.85;16.22
9521;BME280;4798;41.574;23.734;2023-03-29T11:43:29;95588.66;;;19.84;16.38
9521;BME280;4798;41.574;23.734;2023-03-29T11:46:02;95586.31;;;20.20;16.68
9521;BME280;4798;41.574;23.734;2023-03-29T11:48:38;95596.44;;;19.69;17.08
9521;BME280;4798;41.574;23.734;2023-03-29T11:51:14;95580.22;;;20.03;15.31
9521;BME280;4798;41.574;23.734;2023-03-29T11:53:54;95582.19;;;17.78;15.59
9521;BME280;4798;41.574;23.734;2023-03-29T11:56:27;95592.41;;;18.07;17.18
9521;BME280;4798;41.574;23.734;2023-03-29T11:59:02;95594.06;;;18.73;16.69
9521;BME280;4798;41.574;23.734;2023-03-29T12:01:37;95579.25;;;17.88;16.27
9521;BME280;4798;41.574;23.734;2023-03-29T12:04:10;95595.38;;;18.45;16.64
9521;BME280;4798;41.574;23.734;2023-03-29T12:06:45;95578.59;;;17.91;17.55
9521;BME280;4798;41.574;23.734;2023-03-29T12:09:22;95600.72;;;17.66;16.37
9521;BME280;4798;41.574;23.734;2023-03-29T12:11:58;95591.31;;;18.08;15.57
9521;BME280;4798;41.574;23.734;2023-03-29T12:14:37;95586.66;;;18.78;16.31
9521;BME280;4798;41.574;23.734;2023-03-29T12:17:12;95583.50;;;18.93;16.82
9521;BME280;4798;41.574;23.734;2023-03-29T12:19:47;95584.69;;;18.05;16.51
9521;BME280;4798;41.574;23.734;2023-03-29T12:22:21;95583.66;;;17.62;15.61
9521;BME280;4798;41.574;23.734;2023-03-29T12:24:50;95585.09;;;15.98;15.78
9521;BME280;4798;41.574;23.734;2023-03-29T12:27:26;95582.66;;;17.36;17.41
9521;BME280;4798;41.574;23.734;2023-03-29T12:30:38;95582.09;;;17.92;16.77
9521;BME280;4798;41.574;23.734;2023-03-29T12:33:31;95520.75;;;17.37;15.69
9521;BME280;4798;41.574;23.734;2023-03-29T12:36:14;95576.22;;;16.92;16.52
9521;BME280;4798;41.574;23.734;2023-03-29T12:38:47;95571.47;;;17.78;16.11
9521;BME280;4798;41.574;23.734;2023-03-29T12:41:19;95583.41;;;17.72;16.99
9521;BME280;4798;41.574;23.734;2023-03-29T12:43:49;95576.22;;;17.59;16.95
9521;BME280;4798;41.574;23.734;2023-03-29T12:46:20;95588.03;;;18.11;18.54
9521;BME280;4798;41.574;23.734;2023-03-29T12:48:53;95589.72;;;16.87;17.10
9521;BME280;4798;41.574;23.734;2023-03-29T12:51:28;95592.81;;;17.03;17.75
9521;BME280;4798;41.574;23.734;2023-03-29T12:54:05;95601.84;;;16.71;19.18
9521;BME280;4798;41.574;23.734;2023-03-29T12:56:38;95590.34;;;17.29;17.42
9521;BME280;4798;41.574;23.734;2023-03-29T12:59:17;95590.75;;;16.37;16.56
9521;BME280;4798;41.574;23.734;2023-03-29T13:01:57;95590.91;;;17.17;18.20
9521;BME280;4798;41.574;23.734;2023-03-29T13:04:37;95579.47;;;18.48;16.83
9521;BME280;4798;41.574;23.734;2023-03-29T13:07:28;95600.00;;;16.94;16.28
9521;BME280;4798;41.574;23.734;2023-03-29T13:09:58;95611.00;;;16.57;17.60
9521;BME280;4798;41.574;23.734;2023-03-29T13:12:35;95595.94;;;16.83;18.19
9521;BME280;4798;41.574;23.734;2023-03-29T13:15:21;95588.06;;;16.50;18.50
9521;BME280;4798;41.574;23.734;2023-03-29T13:17:55;95599.19;;;16.93;17.65
9521;BME280;4798;41.574;23.734;2023-03-29T13:20:37;95594.50;;;16.77;17.58
9521;BME280;4798;41.574;23.734;2023-03-29T13:23:21;95603.03;;;16.65;17.31
9521;BME280;4798;41.574;23.734;2023-03-29T13:26:13;95595.50;;;17.03;17.67
9521;BME280;4798;41.574;23.734;2023-03-29T13:28:58;95605.00;;;16.73;18.02
9521;BME280;4798;41.574;23.734;2023-03-29T13:31:36;95612.09;;;17.49;18.96
9521;BME280;4798;41.574;23.734;2023-03-29T13:34:17;95606.41;;;17.51;18.97
9521;BME280;4798;41.574;23.734;2023-03-29T13:36:59;95605.31;;;16.44;18.67
9521;BME280;4798;41.574;23.734;2023-03-29T13:39:33;95599.88;;;16.63;19.07
9521;BME280;4798;41.574;23.734;2023-03-29T13:42:17;95611.84;;;16.38;19.72
9521;BME280;4798;41.574;23.734;2023-03-29T13:44:46;95606.88;;;16.73;18.86
9521;BME280;4798;41.574;23.734;2023-03-29T13:47:39;95598.69;;;16.28;19.00
9521;BME280;4798;41.574;23.734;2023-03-29T13:50:33;95604.91;;;16.10;18.51